Terminal Aerodrome Forecast
Issued by NWS

Home | Current Version | Previous Version | Text Only | Print | Product List | Glossary On
Versions: 1 2 3 4 5 6 7 8 9 10 11 12 13 14 15 16 17 18 19 20 21 22 23 24 25 26 27 28 29 30 31 32 33 34
000
FTAK31 PANC 191720
TAFAEN
TAF
PAEN 191720Z 1918/2018 04005KT 3SM BR VCFG SCT002 OVC050
      TEMPO 1918/1921 1/2SM FZFG BKN002
     FM192300 03007KT P6SM FEW004 BKN070=

USA.gov is the U.S. government's official web portal to all federal, state and local government web resources and services.